createdAt,value
2018-05-03T00:00:05.197Z,100173.90
2018-05-03T00:02:34.361Z,100176.23
2018-05-03T00:05:04.427Z,100180.52
2018-05-03T00:07:33.622Z,100177.75
2018-05-03T00:10:02.764Z,100184.62
2018-05-03T00:12:31.921Z,100190.09
2018-05-03T00:15:01.829Z,100196.84
2018-05-03T00:17:31.739Z,100194.89
2018-05-03T00:20:00.900Z,100201.80
2018-05-03T00:22:30.053Z,100199.52
2018-05-03T00:25:00.893Z,100193.61
2018-05-03T00:27:30.025Z,100196.37
2018-05-03T00:30:01.126Z,100197.91
2018-05-03T00:32:30.267Z,100205.61
2018-05-03T00:35:00.170Z,100200.80
2018-05-03T00:37:29.473Z,100208.64
2018-05-03T00:39:58.598Z,100205.15
2018-05-03T00:42:27.776Z,100205.87
2018-05-03T00:44:58.018Z,100211.38
2018-05-03T00:47:27.194Z,100205.63
2018-05-03T00:49:56.326Z,100210.06
2018-05-03T00:52:25.541Z,100211.52
2018-05-03T00:54:55.428Z,100215.48
2018-05-03T00:57:24.605Z,100208.94
2018-05-03T00:59:53.742Z,100212.57
2018-05-03T01:02:23.681Z,100214.13
2018-05-03T01:05:01.765Z,100219.18
2018-05-03T01:07:38.484Z,100220.08
2018-05-03T01:10:11.074Z,100207.42
2018-05-03T01:12:44.074Z,100212.42
2018-05-03T01:15:18.492Z,100212.84
2018-05-03T01:17:53.153Z,100218.86
2018-05-03T01:20:26.947Z,100217.19
2018-05-03T01:22:58.677Z,100215.06
2018-05-03T01:25:32.270Z,100218.27
2018-05-03T01:28:05.080Z,100215.80
2018-05-03T01:30:35.755Z,100220.41
2018-05-03T01:33:05.662Z,100219.27
2018-05-03T01:35:53.124Z,100215.73
2018-05-03T01:38:22.400Z,100214.45
2018-05-03T01:40:52.328Z,100221.44
2018-05-03T01:43:21.524Z,100223.13
2018-05-03T01:45:51.449Z,100223.06
2018-05-03T01:48:20.829Z,100224.09
2018-05-03T01:50:50.726Z,100225.48
2018-05-03T01:53:19.904Z,100222.94
2018-05-03T01:55:49.084Z,100224.16
2018-05-03T01:58:18.984Z,100230.03
2018-05-03T02:00:48.157Z,100233.05
2018-05-03T02:03:17.290Z,100235.19
2018-05-03T02:05:47.245Z,100240.12
2018-05-03T02:08:16.605Z,100239.53
2018-05-03T02:10:46.525Z,100233.83
2018-05-03T02:13:16.315Z,100243.00
2018-05-03T02:15:48.013Z,100239.15
2018-05-03T02:18:17.151Z,100231.02
2018-05-03T02:20:47.331Z,100232.05
2018-05-03T02:23:16.466Z,100222.73
2018-05-03T02:25:45.659Z,100222.28
2018-05-03T02:28:14.813Z,100228.05
2018-05-03T02:30:44.063Z,100235.13
2018-05-03T02:33:15.235Z,100244.39
2018-05-03T02:35:45.134Z,100237.02
2018-05-03T02:38:14.270Z,100242.19
2018-05-03T02:40:43.403Z,100236.42
2018-05-03T02:43:12.553Z,100239.67
2018-05-03T02:45:41.725Z,100235.58
2018-05-03T02:48:10.885Z,100240.27
2018-05-03T02:50:40.037Z,100247.92
2018-05-03T02:53:09.965Z,100243.38
2018-05-03T02:55:39.105Z,100237.29
2018-05-03T02:58:28.206Z,100235.84
2018-05-03T03:01:23.755Z,100239.12
2018-05-03T03:04:18.476Z,100235.34
2018-05-03T03:11:02.679Z,100229.14
2018-05-03T03:17:19.693Z,100232.40
2018-05-03T03:20:12.983Z,100242.00
2018-05-03T03:23:07.227Z,100243.23
2018-05-03T03:29:32.977Z,100243.92
2018-05-03T03:32:20.384Z,100247.62
2018-05-03T03:35:06.666Z,100251.72
2018-05-03T03:37:54.344Z,100251.37
2018-05-03T03:40:42.278Z,100249.34
2018-05-03T03:43:29.043Z,100247.77
2018-05-03T03:45:59.029Z,100252.38
2018-05-03T03:48:29.165Z,100250.80
2018-05-03T03:50:59.087Z,100249.59
2018-05-03T03:53:28.986Z,100253.47
2018-05-03T03:55:58.580Z,100261.91
2018-05-03T03:58:29.231Z,100264.14
2018-05-03T04:00:59.147Z,100264.41
2018-05-03T04:03:29.322Z,100268.72
2018-05-03T04:05:58.467Z,100269.09
2018-05-03T04:08:28.466Z,100269.42
2018-05-03T04:10:57.549Z,100257.05
2018-05-03T04:13:26.749Z,100263.62
2018-05-03T04:15:55.898Z,100259.50
2018-05-03T04:18:42.724Z,100261.80
2018-05-03T04:45:28.296Z,100280.58
2018-05-03T04:47:58.273Z,100284.95
2018-05-03T04:50:28.238Z,100283.52
2018-05-03T04:52:58.598Z,100286.39
2018-05-03T04:55:27.746Z,100290.25
2018-05-03T04:57:56.921Z,100291.67
2018-05-03T05:00:26.868Z,100292.59
2018-05-03T05:02:56.032Z,100290.66
2018-05-03T05:05:26.562Z,100287.58
2018-05-03T05:07:55.735Z,100290.70
2018-05-03T05:10:25.067Z,100295.89
2018-05-03T05:12:54.930Z,100299.38
2018-05-03T05:15:24.866Z,100306.02
2018-05-03T05:17:54.164Z,100306.32
2018-05-03T05:20:23.388Z,100304.45
2018-05-03T05:22:52.555Z,100305.33
2018-05-03T05:25:22.659Z,100319.27
2018-05-03T05:27:52.574Z,100314.37
2018-05-03T05:30:21.801Z,100315.73
2018-05-03T05:32:51.020Z,100320.08
2018-05-03T05:35:20.176Z,100324.11
2018-05-03T05:37:49.350Z,100330.00
2018-05-03T05:40:19.296Z,100330.04
2018-05-03T05:42:48.465Z,100336.77
2018-05-03T05:45:18.372Z,100339.48
2018-05-03T05:47:48.337Z,100334.75
2018-05-03T05:50:17.487Z,100338.59
2018-05-03T05:52:47.412Z,100333.64
2018-05-03T05:55:17.307Z,100338.97
2018-05-03T05:57:47.266Z,100340.61
2018-05-03T06:00:16.426Z,100350.52
2018-05-03T06:02:46.337Z,100347.86
2018-05-03T06:05:16.456Z,100358.72
2018-05-03T06:07:45.611Z,100371.55
2018-05-03T06:10:14.819Z,100373.10
2018-05-03T06:12:43.913Z,100374.36
2018-05-03T06:15:13.112Z,100379.64
2018-05-03T06:17:42.276Z,100377.22
2018-05-03T06:20:12.376Z,100383.86
2018-05-03T06:22:42.298Z,100382.26
2018-05-03T06:25:11.475Z,100377.16
2018-05-03T06:27:41.389Z,100386.17
2018-05-03T06:30:11.311Z,100384.09
2018-05-03T06:32:41.229Z,100386.19
2018-05-03T06:35:11.149Z,100384.17
2018-05-03T06:37:40.418Z,100387.84
2018-05-03T06:40:09.601Z,100391.53
2018-05-03T06:42:38.760Z,100403.06
2018-05-03T06:45:07.920Z,100404.06
2018-05-03T06:47:37.078Z,100407.91
2018-05-03T06:50:06.288Z,100414.50
2018-05-03T06:52:35.493Z,100413.36
2018-05-03T06:55:05.686Z,100414.67
2018-05-03T06:57:34.884Z,100408.61
2018-05-03T07:00:04.064Z,100417.32
2018-05-03T07:02:34.061Z,100414.59
2018-05-03T07:05:04.003Z,100424.72
2018-05-03T07:07:34.115Z,100428.72
2018-05-03T07:10:03.322Z,100427.45
2018-05-03T07:12:33.181Z,100434.03
2018-05-03T07:15:02.364Z,100430.33
2018-05-03T07:17:31.502Z,100434.88
2018-05-03T07:20:01.424Z,100434.14
2018-05-03T07:22:32.277Z,100436.62
2018-05-03T07:25:02.170Z,100440.95
2018-05-03T07:27:31.334Z,100437.42
2018-05-03T07:30:00.475Z,100438.02
2018-05-03T07:32:30.591Z,100435.61
2018-05-03T07:34:59.722Z,100438.50
2018-05-03T07:37:29.918Z,100442.47
2018-05-03T07:39:59.092Z,100442.63
2018-05-03T07:42:28.981Z,100443.13
2018-05-03T07:44:58.416Z,100447.07
2018-05-03T07:47:27.586Z,100454.97
2018-05-03T07:49:56.728Z,100460.50
2018-05-03T07:52:25.878Z,100456.91
2018-05-03T07:54:55.657Z,100465.18
2018-05-03T07:57:25.893Z,100470.20
2018-05-03T07:59:55.065Z,100457.30
2018-05-03T08:02:25.184Z,100467.36
2018-05-03T08:04:54.344Z,100461.95
2018-05-03T08:07:24.308Z,100461.66
2018-05-03T08:09:53.459Z,100458.64
2018-05-03T08:12:23.390Z,100459.65
2018-05-03T08:14:53.437Z,100457.96
2018-05-03T08:17:23.567Z,100444.81
2018-05-03T08:19:53.477Z,100451.09
2018-05-03T08:22:23.491Z,100454.63
2018-05-03T08:24:53.371Z,100462.43
2018-05-03T08:27:24.172Z,100463.80
2018-05-03T08:29:53.527Z,100465.95
2018-05-03T08:32:23.214Z,100469.89
2018-05-03T08:34:52.392Z,100466.52
2018-05-03T08:37:21.530Z,100461.31
2018-05-03T08:39:50.713Z,100469.58
2018-05-03T08:42:20.849Z,100471.41
2018-05-03T08:44:50.029Z,100475.36
2018-05-03T08:47:19.162Z,100476.94
2018-05-03T08:49:48.321Z,100479.52
2018-05-03T08:52:17.480Z,100478.36
2018-05-03T08:54:47.257Z,100489.69
2018-05-03T08:57:16.453Z,100488.16
2018-05-03T08:59:45.614Z,100498.39
2018-05-03T09:02:15.535Z,100504.67
2018-05-03T09:04:45.446Z,100494.55
2018-05-03T09:07:15.370Z,100491.86
2018-05-03T09:09:44.532Z,100490.64
2018-05-03T09:12:13.704Z,100494.03
2018-05-03T09:14:42.899Z,100493.73
2018-05-03T09:17:12.053Z,100492.70
2018-05-03T09:19:41.978Z,100487.56
2018-05-03T09:22:11.580Z,100500.06
2018-05-03T09:24:40.727Z,100500.96
2018-05-03T09:27:09.862Z,100503.81
2018-05-03T09:29:40.734Z,100509.16
2018-05-03T09:32:09.943Z,100498.52
2018-05-03T09:34:39.126Z,100499.25
2018-05-03T09:37:08.284Z,100502.83
2018-05-03T09:39:38.234Z,100503.83
2018-05-03T09:42:07.367Z,100499.86
2018-05-03T09:44:36.717Z,100519.10
2018-05-03T09:47:05.859Z,100523.66
2018-05-03T09:49:35.803Z,100526.77
2018-05-03T09:52:05.752Z,100531.56
2018-05-03T09:54:35.970Z,100523.99
2018-05-03T09:57:05.131Z,100523.41
2018-05-03T09:59:34.288Z,100518.19
2018-05-03T10:02:03.445Z,100522.34
2018-05-03T10:04:34.404Z,100529.54
2018-05-03T10:07:03.618Z,100525.25
2018-05-03T10:09:32.763Z,100526.50
2018-05-03T10:12:02.793Z,100525.95
2018-05-03T10:14:32.693Z,100529.00
2018-05-03T10:17:02.626Z,100527.24
2018-05-03T10:19:32.734Z,100518.02
2018-05-03T10:22:02.686Z,100521.81
2018-05-03T10:24:31.827Z,100514.11
2018-05-03T10:27:01.065Z,100519.75
2018-05-03T10:29:30.201Z,100512.33
2018-05-03T10:31:59.413Z,100512.49
2018-05-03T10:34:28.585Z,100520.24
2018-05-03T10:36:57.737Z,100512.09
2018-05-03T10:39:27.891Z,100516.16
2018-05-03T10:41:57.077Z,100517.19
2018-05-03T10:44:27.933Z,100510.38
2018-05-03T10:46:57.149Z,100500.42
2018-05-03T10:49:26.310Z,100497.55
2018-05-03T10:51:55.476Z,100499.89
2018-05-03T10:54:25.385Z,100496.94
2018-05-03T10:56:55.313Z,100495.22
2018-05-03T10:59:25.453Z,100500.41
2018-05-03T11:01:54.614Z,100490.53
2018-05-03T11:04:24.749Z,100489.27
2018-05-03T11:06:54.692Z,100486.22
2018-05-03T11:09:24.666Z,100484.62
2018-05-03T11:11:53.802Z,100494.16
2018-05-03T11:14:22.985Z,100491.30
2018-05-03T11:16:52.923Z,100492.47
2018-05-03T11:19:22.049Z,100490.78
2018-05-03T11:21:51.250Z,100499.40
2018-05-03T11:24:20.389Z,100493.66
2018-05-03T11:26:50.369Z,100491.66
2018-05-03T11:29:19.598Z,100486.70
2018-05-03T11:31:49.313Z,100489.97
2018-05-03T11:34:19.277Z,100486.64
2018-05-03T11:36:48.551Z,100486.39
2018-05-03T11:39:17.653Z,100480.31
2018-05-03T11:41:46.795Z,100470.83
2018-05-03T11:44:15.986Z,100470.33
2018-05-03T11:46:47.852Z,100467.33
2018-05-03T11:49:17.016Z,100474.78
2018-05-03T11:51:46.161Z,100464.08
2018-05-03T11:54:15.339Z,100455.94
2018-05-03T11:56:44.520Z,100468.16
2018-05-03T11:59:13.694Z,100466.20
2018-05-03T12:01:43.798Z,100465.98
2018-05-03T12:04:12.981Z,100460.90
2018-05-03T12:06:42.905Z,100469.04
2018-05-03T12:09:12.123Z,100467.34
2018-05-03T12:11:41.267Z,100464.36
2018-05-03T12:14:10.376Z,100456.94
2018-05-03T12:16:40.339Z,100465.84
2018-05-03T12:19:09.509Z,100450.70
2018-05-03T12:21:38.652Z,100453.31
2018-05-03T12:24:07.833Z,100464.25
2018-05-03T12:26:36.966Z,100467.55
2018-05-03T12:29:06.895Z,100459.27
2018-05-03T12:31:37.622Z,100461.45
2018-05-03T12:34:07.604Z,100455.47
2018-05-03T12:36:36.751Z,100459.23
2018-05-03T12:39:06.715Z,100442.59
2018-05-03T12:41:36.695Z,100446.97
2018-05-03T12:44:06.706Z,100446.10
2018-05-03T12:46:36.596Z,100443.20
2018-05-03T12:49:05.746Z,100450.40
2018-05-03T12:51:35.924Z,100444.11
2018-05-03T12:54:05.088Z,100437.95
2018-05-03T12:56:35.029Z,100438.29
2018-05-03T12:59:04.191Z,100431.03
2018-05-03T13:01:33.348Z,100434.20
2018-05-03T13:04:03.274Z,100431.66
2018-05-03T13:06:32.434Z,100429.55
2018-05-03T13:09:01.575Z,100435.34
2018-05-03T13:11:31.386Z,100428.80
2018-05-03T13:14:00.604Z,100430.28
2018-05-03T13:16:29.772Z,100422.55
2018-05-03T13:18:58.908Z,100418.27
2018-05-03T13:21:28.073Z,100411.47
2018-05-03T13:23:57.227Z,100408.50
2018-05-03T13:26:27.145Z,100414.23
2018-05-03T13:28:57.108Z,100400.52
2018-05-03T13:31:27.078Z,100402.98
2018-05-03T13:33:57.002Z,100410.75
2018-05-03T13:36:26.936Z,100415.44
2018-05-03T13:38:56.930Z,100411.17
2018-05-03T13:41:26.859Z,100402.55
2018-05-03T13:43:56.024Z,100412.06
2018-05-03T13:46:26.725Z,100410.09
2018-05-03T13:48:56.044Z,100412.51
2018-05-03T13:51:25.247Z,100416.13
2018-05-03T13:53:54.354Z,100403.02
2018-05-03T13:56:23.488Z,100416.72
2018-05-03T13:58:52.661Z,100416.02
2018-05-03T14:01:23.442Z,100414.23
2018-05-03T14:03:52.670Z,100410.39
2018-05-03T14:06:21.865Z,100415.84
2018-05-03T14:08:51.015Z,100414.44
2018-05-03T14:11:20.251Z,100410.25
2018-05-03T14:13:51.103Z,100409.02
2018-05-03T14:16:20.283Z,100409.86
2018-05-03T14:18:52.163Z,100404.42
2018-05-03T14:21:21.308Z,100399.19
2018-05-03T14:23:51.151Z,100401.12
2018-05-03T14:26:21.245Z,100399.36
2018-05-03T14:28:50.419Z,100403.59
2018-05-03T14:31:20.367Z,100399.19
2018-05-03T14:33:49.530Z,100405.22
2018-05-03T14:36:19.442Z,100403.90
2018-05-03T14:38:48.605Z,100398.48
2018-05-03T14:41:17.796Z,100397.88
2018-05-03T14:43:47.901Z,100402.98
2018-05-03T14:46:17.095Z,100405.19
2018-05-03T14:48:47.033Z,100410.09
2018-05-03T14:51:16.211Z,100419.61
2018-05-03T14:53:45.378Z,100417.44
2018-05-03T14:56:15.177Z,100406.34
2018-05-03T14:58:45.141Z,100409.22
2018-05-03T15:01:14.811Z,100411.62
2018-05-03T15:03:44.964Z,100405.55
2018-05-03T15:06:14.126Z,100412.38
2018-05-03T15:08:44.034Z,100413.00
2018-05-03T15:11:13.983Z,100408.02
2018-05-03T15:13:44.115Z,100412.14
2018-05-03T15:16:13.337Z,100416.40
2018-05-03T15:18:43.249Z,100416.56
2018-05-03T15:21:12.397Z,100418.91
2018-05-03T15:23:41.576Z,100421.34
2018-05-03T15:26:11.522Z,100421.73
2018-05-03T15:28:40.699Z,100429.43
2018-05-03T15:31:10.636Z,100429.34
2018-05-03T15:33:40.114Z,100425.47
2018-05-03T15:36:10.049Z,100426.59
2018-05-03T15:38:39.245Z,100427.42
2018-05-03T15:41:08.426Z,100425.44
2018-05-03T15:43:38.362Z,100424.75
2018-05-03T15:46:07.518Z,100426.91
2018-05-03T15:48:38.116Z,100424.65
2018-05-03T15:51:07.283Z,100419.09
2018-05-03T15:53:36.427Z,100416.48
2018-05-03T15:56:05.578Z,100422.45
2018-05-03T15:58:34.731Z,100414.97
2018-05-03T16:01:04.663Z,100419.33
2018-05-03T16:03:33.849Z,100414.11
2018-05-03T16:06:03.847Z,100413.12
2018-05-03T16:08:33.019Z,100412.19
2018-05-03T16:11:02.192Z,100412.31
2018-05-03T16:13:32.351Z,100420.13
2018-05-03T16:16:01.533Z,100419.30
2018-05-03T16:18:31.651Z,100414.07
2018-05-03T16:21:00.845Z,100413.08
2018-05-03T16:23:30.781Z,100413.36
2018-05-03T16:25:59.937Z,100414.20
2018-05-03T16:28:29.140Z,100419.92
2018-05-03T16:30:59.128Z,100411.02
2018-05-03T16:33:28.336Z,100403.05
2018-05-03T16:35:57.494Z,100402.66
2018-05-03T16:38:26.690Z,100394.88
2018-05-03T16:40:55.856Z,100404.73
2018-05-03T16:43:25.062Z,100402.39
2018-05-03T16:45:54.218Z,100398.05
2018-05-03T16:48:23.404Z,100403.32
2018-05-03T16:50:53.373Z,100408.12
2018-05-03T16:53:22.562Z,100408.77
2018-05-03T16:55:51.714Z,100408.31
2018-05-03T16:58:21.668Z,100405.11
2018-05-03T17:00:50.840Z,100408.59
2018-05-03T17:03:20.058Z,100407.88
2018-05-03T17:05:51.034Z,100398.45
2018-05-03T17:08:21.218Z,100405.56
2018-05-03T17:10:50.387Z,100405.97
2018-05-03T17:13:20.389Z,100398.14
2018-05-03T17:15:50.763Z,100403.74
2018-05-03T17:18:19.924Z,100399.48
2018-05-03T17:20:49.911Z,100399.12
2018-05-03T17:23:19.045Z,100395.95
2018-05-03T17:25:49.050Z,100399.89
2018-05-03T17:28:18.984Z,100402.98
2018-05-03T17:30:49.065Z,100404.88
2018-05-03T17:33:18.221Z,100412.81
2018-05-03T17:35:47.418Z,100413.19
2018-05-03T17:38:17.386Z,100415.35
2018-05-03T17:40:47.298Z,100418.82
2018-05-03T17:43:17.396Z,100415.26
2018-05-03T17:45:46.616Z,100416.67
2018-05-03T17:48:15.817Z,100428.88
2018-05-03T17:50:45.790Z,100430.97
2018-05-03T17:53:14.968Z,100428.34
2018-05-03T17:55:44.129Z,100440.55
2018-05-03T17:58:13.338Z,100449.88
2018-05-03T18:00:42.534Z,100450.22
2018-05-03T18:03:11.829Z,100457.80
2018-05-03T18:05:42.418Z,100458.96
2018-05-03T18:08:11.634Z,100471.63
2018-05-03T18:10:43.462Z,100467.42
2018-05-03T18:13:12.797Z,100467.52
2018-05-03T18:15:42.045Z,100465.01
2018-05-03T18:18:11.199Z,100474.25
2018-05-03T18:20:42.566Z,100483.06
2018-05-03T18:23:11.860Z,100485.34
2018-05-03T18:25:41.541Z,100491.87
2018-05-03T18:28:11.247Z,100494.40
2018-05-03T18:30:42.055Z,100502.92
2018-05-03T18:33:11.252Z,100504.67
2018-05-03T18:35:41.457Z,100509.55
2018-05-03T18:38:10.642Z,100515.80
2018-05-03T18:40:41.793Z,100519.66
2018-05-03T18:43:10.996Z,100523.89
2018-05-03T18:45:42.226Z,100527.43
2018-05-03T18:48:12.237Z,100537.67
2018-05-03T18:50:41.615Z,100534.64
2018-05-03T18:53:11.545Z,100534.09
2018-05-03T18:55:41.611Z,100544.06
2018-05-03T18:58:10.759Z,100546.91
2018-05-03T19:00:39.933Z,100548.97
2018-05-03T19:03:09.869Z,100548.38
2018-05-03T19:05:39.042Z,100549.52
2018-05-03T19:08:08.999Z,100556.23
2018-05-03T19:10:38.160Z,100559.31
2018-05-03T19:13:07.404Z,100564.33
2018-05-03T19:15:36.879Z,100564.33
2018-05-03T19:18:06.862Z,100565.22
2018-05-03T19:20:36.087Z,100562.91
2018-05-03T19:23:07.970Z,100564.30
2018-05-03T19:25:37.168Z,100564.55
2018-05-03T19:28:07.351Z,100566.86
2018-05-03T19:30:36.490Z,100569.53
2018-05-03T19:33:05.632Z,100571.79
2018-05-03T19:35:34.812Z,100574.30
2018-05-03T19:38:04.002Z,100586.55
2018-05-03T19:40:33.178Z,100582.64
2018-05-03T19:43:03.173Z,100592.30
2018-05-03T19:45:33.117Z,100596.38
2018-05-03T19:48:02.286Z,100598.73
2018-05-03T19:50:32.254Z,100602.52
2018-05-03T19:53:01.424Z,100604.23
2018-05-03T19:55:30.629Z,100612.47
2018-05-03T19:57:59.828Z,100617.78
2018-05-03T20:00:29.037Z,100626.79
2018-05-03T20:02:58.201Z,100626.20
2018-05-03T20:05:27.383Z,100627.36
2018-05-03T20:07:57.354Z,100634.69
2018-05-03T20:10:26.519Z,100622.71
2018-05-03T20:12:55.667Z,100623.84
2018-05-03T20:15:24.880Z,100627.91
2018-05-03T20:17:54.048Z,100626.54
2018-05-03T20:20:23.217Z,100622.12
2018-05-03T20:22:52.394Z,100621.95
2018-05-03T20:25:22.313Z,100633.78
2018-05-03T20:27:51.483Z,100630.06
2018-05-03T20:30:20.653Z,100634.61
2018-05-03T20:32:49.840Z,100634.80
2018-05-03T20:35:19.790Z,100634.55
2018-05-03T20:37:50.499Z,100632.09
2018-05-03T20:40:19.679Z,100642.79
2018-05-03T20:42:48.841Z,100639.59
2018-05-03T20:45:18.011Z,100640.98
2018-05-03T20:47:47.185Z,100638.79
2018-05-03T20:50:16.358Z,100638.29
2018-05-03T20:52:45.589Z,100644.66
2018-05-03T20:55:14.741Z,100640.00
2018-05-03T20:57:44.834Z,100644.09
2018-05-03T21:00:14.789Z,100643.30
2018-05-03T21:02:45.740Z,100641.30
2018-05-03T21:05:14.869Z,100641.56
2018-05-03T21:07:44.035Z,100650.98
2018-05-03T21:10:13.202Z,100651.86
2018-05-03T21:12:42.487Z,100656.28
2018-05-03T21:15:11.666Z,100658.80
2018-05-03T21:17:40.831Z,100659.53
2018-05-03T21:20:10.030Z,100658.73
2018-05-03T21:22:39.195Z,100662.14
2018-05-03T21:25:09.131Z,100661.02
2018-05-03T21:27:38.302Z,100659.95
2018-05-03T21:30:08.237Z,100661.67
2018-05-03T21:32:37.406Z,100656.77
2018-05-03T21:35:08.268Z,100658.77
2018-05-03T21:37:38.199Z,100648.88
2018-05-03T21:40:07.409Z,100647.17
2018-05-03T21:42:37.310Z,100647.75
2018-05-03T21:45:06.437Z,100650.52
2018-05-03T21:47:35.599Z,100648.89
2018-05-03T21:50:05.762Z,100654.98
2018-05-03T21:52:35.681Z,100654.31
2018-05-03T21:55:04.850Z,100651.45
2018-05-03T21:57:34.006Z,100654.72
2018-05-03T22:00:03.968Z,100653.05
2018-05-03T22:02:34.033Z,100653.62
2018-05-03T22:05:03.975Z,100656.98
2018-05-03T22:07:33.133Z,100660.13
2018-05-03T22:10:03.086Z,100652.58
2018-05-03T22:12:32.252Z,100655.24
2018-05-03T22:15:03.127Z,100652.42
2018-05-03T22:17:32.354Z,100655.75
2018-05-03T22:20:01.497Z,100657.71
2018-05-03T22:22:31.399Z,100663.13
2018-05-03T22:25:02.253Z,100665.80
2018-05-03T22:27:32.168Z,100663.17
2018-05-03T22:30:02.274Z,100668.84
2018-05-03T22:32:31.427Z,100675.08
2018-05-03T22:35:00.571Z,100669.43
2018-05-03T22:37:29.770Z,100662.72
2018-05-03T22:39:59.692Z,100666.20
2018-05-03T22:42:29.617Z,100671.92
2018-05-03T22:44:58.769Z,100669.47
2018-05-03T22:47:27.895Z,100671.58
2018-05-03T22:49:57.842Z,100671.39
2018-05-03T22:52:27.014Z,100668.16
2018-05-03T22:54:56.951Z,100669.94
2018-05-03T22:57:26.090Z,100672.27
2018-05-03T22:59:55.256Z,100668.74
2018-05-03T23:02:24.401Z,100666.86
2018-05-03T23:04:53.544Z,100670.39
2018-05-03T23:07:23.481Z,100670.73
2018-05-03T23:09:52.620Z,100678.30
2018-05-03T23:12:23.509Z,100679.44
2018-05-03T23:14:52.666Z,100681.48
2018-05-03T23:17:22.582Z,100676.59
2018-05-03T23:19:52.491Z,100676.64
2018-05-03T23:22:22.408Z,100684.80
2018-05-03T23:24:52.325Z,100682.14
2018-05-03T23:27:22.239Z,100687.95
2018-05-03T23:29:51.408Z,100691.39
2018-05-03T23:32:21.047Z,100692.16
2018-05-03T23:34:50.958Z,100690.23
2018-05-03T23:37:20.872Z,100684.78
2018-05-03T23:39:50.786Z,100685.81
2018-05-03T23:42:21.638Z,100685.42
2018-05-03T23:44:50.807Z,100686.00
2018-05-03T23:47:19.985Z,100691.16
2018-05-03T23:49:49.206Z,100690.85
2018-05-03T23:52:18.378Z,100692.75
2018-05-03T23:54:47.542Z,100681.17
2018-05-03T23:57:17.603Z,100686.23
2018-05-03T23:59:46.733Z,100686.47
